Search for airport 
image banner adimage banner adimage banner ad
image banner ad

KSJC - Norman Y Mineta San Jose Intl

Located in San Jose, United States

ICAO - SJC, IATA - SJC

Data provided by Airmate  

General information

Coordinates: N37°21'47" W121°55'43"
Elevation is 62 feet MSL.
Magnetic variation is 13° East
View others Airports in California

Operational data

Special qualification required
Current time UTC:
Current local time:
Weather
METAR: KSJC 150953Z AUTO 01004KT 10SM CLR 15/10 A3010 RMK AO2 SLP191 T01500100
TAF: KSJC 150522Z 1506/1606 34008KT P6SM FEW030 FM150800 VRB03KT P6SM SCT018 FM151400 VRB03KT P6SM FEW018 FM151800 33010KT P6SM FEW020 FM152200 33014G20KT P6SM FEW030 FM160400 35009KT P6SM FEW050
View NOTAMs / SUP AIP / TFR affecting this airport [VIEW]
Communications frequencies: [VIEW]

Runways:

RWY identifierQFULength (ft)Width (ft)SurfaceLDA (ft)
12R139°11000150CONC8587
30L319°11000150CONC7614
12L139°11000150CONC8831
30R319°11000150CONC7597

Airport contact information

Address: San Jose United States

Satellite view of KSJC